sensor_id;sensor_type;location;lat;lon;timestamp;P1;durP1;ratioP1;P2;durP2;ratioP2
39176;SDS011;24904;52.208;21.192;2024-01-30T00:04:38;34.60;;;17.40;;
39176;SDS011;24904;52.208;21.192;2024-01-30T00:09:46;34.20;;;17.20;;
39176;SDS011;24904;52.208;21.192;2024-01-30T00:14:51;30.00;;;16.20;;
39176;SDS011;24904;52.208;21.192;2024-01-30T00:19:56;32.10;;;17.70;;
39176;SDS011;24904;52.208;21.192;2024-01-30T00:25:03;35.50;;;15.90;;
39176;SDS011;24904;52.208;21.192;2024-01-30T00:30:09;34.60;;;17.40;;
39176;SDS011;24904;52.208;21.192;2024-01-30T00:35:15;31.80;;;17.30;;
39176;SDS011;24904;52.208;21.192;2024-01-30T00:40:20;32.50;;;16.50;;
39176;SDS011;24904;52.208;21.192;2024-01-30T00:45:25;35.30;;;16.80;;
39176;SDS011;24904;52.208;21.192;2024-01-30T00:50:30;38.30;;;19.80;;
39176;SDS011;24904;52.208;21.192;2024-01-30T00:55:35;32.10;;;17.20;;
39176;SDS011;24904;52.208;21.192;2024-01-30T01:00:40;39.80;;;17.00;;
39176;SDS011;24904;52.208;21.192;2024-01-30T01:05:46;30.70;;;17.50;;
39176;SDS011;24904;52.208;21.192;2024-01-30T01:10:51;31.40;;;17.00;;
39176;SDS011;24904;52.208;21.192;2024-01-30T01:15:56;26.80;;;15.40;;
39176;SDS011;24904;52.208;21.192;2024-01-30T01:21:01;32.00;;;16.80;;
39176;SDS011;24904;52.208;21.192;2024-01-30T01:26:06;34.00;;;16.40;;
39176;SDS011;24904;52.208;21.192;2024-01-30T01:31:12;34.40;;;16.70;;
39176;SDS011;24904;52.208;21.192;2024-01-30T01:36:19;35.60;;;18.70;;
39176;SDS011;24904;52.208;21.192;2024-01-30T01:41:24;30.90;;;17.30;;
39176;SDS011;24904;52.208;21.192;2024-01-30T01:46:33;28.30;;;16.30;;
39176;SDS011;24904;52.208;21.192;2024-01-30T01:51:38;30.60;;;16.70;;
39176;SDS011;24904;52.208;21.192;2024-01-30T01:56:44;35.80;;;17.00;;
39176;SDS011;24904;52.208;21.192;2024-01-30T02:01:50;31.70;;;17.50;;
39176;SDS011;24904;52.208;21.192;2024-01-30T02:06:56;31.50;;;17.50;;
39176;SDS011;24904;52.208;21.192;2024-01-30T02:12:01;35.30;;;17.70;;
39176;SDS011;24904;52.208;21.192;2024-01-30T02:17:06;28.70;;;16.30;;
39176;SDS011;24904;52.208;21.192;2024-01-30T02:22:11;32.40;;;17.80;;
39176;SDS011;24904;52.208;21.192;2024-01-30T02:27:17;34.00;;;17.70;;
39176;SDS011;24904;52.208;21.192;2024-01-30T02:32:22;36.80;;;17.70;;
39176;SDS011;24904;52.208;21.192;2024-01-30T02:37:27;35.90;;;18.50;;
39176;SDS011;24904;52.208;21.192;2024-01-30T02:42:33;35.90;;;16.60;;
39176;SDS011;24904;52.208;21.192;2024-01-30T02:47:38;38.10;;;18.30;;
39176;SDS011;24904;52.208;21.192;2024-01-30T02:52:43;34.60;;;17.50;;
39176;SDS011;24904;52.208;21.192;2024-01-30T02:57:48;30.50;;;17.00;;
39176;SDS011;24904;52.208;21.192;2024-01-30T03:02:53;31.40;;;17.50;;
39176;SDS011;24904;52.208;21.192;2024-01-30T03:07:58;32.60;;;17.60;;
39176;SDS011;24904;52.208;21.192;2024-01-30T03:13:04;33.90;;;17.30;;
39176;SDS011;24904;52.208;21.192;2024-01-30T03:18:09;33.90;;;17.90;;
39176;SDS011;24904;52.208;21.192;2024-01-30T03:23:14;35.80;;;18.00;;
39176;SDS011;24904;52.208;21.192;2024-01-30T03:28:19;34.00;;;17.40;;
39176;SDS011;24904;52.208;21.192;2024-01-30T03:33:24;41.60;;;18.20;;
39176;SDS011;24904;52.208;21.192;2024-01-30T03:38:30;32.80;;;17.00;;
39176;SDS011;24904;52.208;21.192;2024-01-30T03:43:35;34.40;;;17.90;;
39176;SDS011;24904;52.208;21.192;2024-01-30T03:48:40;30.40;;;17.60;;
39176;SDS011;24904;52.208;21.192;2024-01-30T03:53:45;32.00;;;18.00;;
39176;SDS011;24904;52.208;21.192;2024-01-30T03:58:50;34.90;;;17.50;;
39176;SDS011;24904;52.208;21.192;2024-01-30T04:03:55;32.20;;;16.70;;
39176;SDS011;24904;52.208;21.192;2024-01-30T04:09:00;32.70;;;17.20;;
39176;SDS011;24904;52.208;21.192;2024-01-30T04:14:05;33.20;;;17.10;;
39176;SDS011;24904;52.208;21.192;2024-01-30T04:19:10;33.30;;;17.70;;
39176;SDS011;24904;52.208;21.192;2024-01-30T04:24:16;35.60;;;18.80;;
39176;SDS011;24904;52.208;21.192;2024-01-30T04:29:21;29.00;;;17.00;;
39176;SDS011;24904;52.208;21.192;2024-01-30T04:34:26;37.10;;;19.30;;
39176;SDS011;24904;52.208;21.192;2024-01-30T04:39:32;35.50;;;17.90;;
39176;SDS011;24904;52.208;21.192;2024-01-30T04:44:38;37.20;;;18.50;;
39176;SDS011;24904;52.208;21.192;2024-01-30T04:49:43;35.20;;;19.80;;
39176;SDS011;24904;52.208;21.192;2024-01-30T04:54:48;35.90;;;20.20;;
39176;SDS011;24904;52.208;21.192;2024-01-30T04:59:53;36.20;;;19.00;;
39176;SDS011;24904;52.208;21.192;2024-01-30T05:04:58;36.60;;;19.40;;
39176;SDS011;24904;52.208;21.192;2024-01-30T05:10:05;40.80;;;19.60;;
39176;SDS011;24904;52.208;21.192;2024-01-30T05:15:11;40.60;;;19.70;;
39176;SDS011;24904;52.208;21.192;2024-01-30T05:20:16;36.50;;;21.00;;
39176;SDS011;24904;52.208;21.192;2024-01-30T05:25:21;35.00;;;19.40;;
39176;SDS011;24904;52.208;21.192;2024-01-30T05:30:26;36.60;;;19.70;;
39176;SDS011;24904;52.208;21.192;2024-01-30T05:35:32;36.70;;;18.40;;
39176;SDS011;24904;52.208;21.192;2024-01-30T05:40:37;36.60;;;19.00;;
39176;SDS011;24904;52.208;21.192;2024-01-30T05:45:42;32.40;;;17.60;;
39176;SDS011;24904;52.208;21.192;2024-01-30T05:50:47;33.80;;;17.70;;
39176;SDS011;24904;52.208;21.192;2024-01-30T05:55:52;32.40;;;17.60;;
39176;SDS011;24904;52.208;21.192;2024-01-30T06:00:57;34.50;;;17.40;;
39176;SDS011;24904;52.208;21.192;2024-01-30T06:06:02;34.00;;;18.20;;
39176;SDS011;24904;52.208;21.192;2024-01-30T06:11:11;37.20;;;19.00;;
39176;SDS011;24904;52.208;21.192;2024-01-30T06:16:16;37.20;;;18.90;;
39176;SDS011;24904;52.208;21.192;2024-01-30T06:21:23;32.90;;;18.30;;
39176;SDS011;24904;52.208;21.192;2024-01-30T06:26:28;34.50;;;19.00;;
39176;SDS011;24904;52.208;21.192;2024-01-30T06:31:34;38.60;;;20.10;;
39176;SDS011;24904;52.208;21.192;2024-01-30T06:36:44;38.70;;;19.90;;
39176;SDS011;24904;52.208;21.192;2024-01-30T06:41:49;38.40;;;18.40;;
39176;SDS011;24904;52.208;21.192;2024-01-30T06:46:54;37.10;;;19.30;;
39176;SDS011;24904;52.208;21.192;2024-01-30T06:52:00;36.20;;;19.70;;
39176;SDS011;24904;52.208;21.192;2024-01-30T06:57:05;41.20;;;19.30;;
39176;SDS011;24904;52.208;21.192;2024-01-30T07:02:13;36.20;;;18.70;;
39176;SDS011;24904;52.208;21.192;2024-01-30T07:07:19;32.50;;;18.20;;
39176;SDS011;24904;52.208;21.192;2024-01-30T07:12:24;34.30;;;17.60;;
39176;SDS011;24904;52.208;21.192;2024-01-30T07:17:29;34.80;;;18.20;;
39176;SDS011;24904;52.208;21.192;2024-01-30T07:22:34;31.80;;;18.50;;
39176;SDS011;24904;52.208;21.192;2024-01-30T07:27:39;40.60;;;19.10;;
39176;SDS011;24904;52.208;21.192;2024-01-30T07:32:44;40.40;;;19.20;;
39176;SDS011;24904;52.208;21.192;2024-01-30T07:37:49;35.30;;;18.90;;
39176;SDS011;24904;52.208;21.192;2024-01-30T07:42:54;38.60;;;19.80;;
39176;SDS011;24904;52.208;21.192;2024-01-30T07:47:59;36.70;;;18.90;;
39176;SDS011;24904;52.208;21.192;2024-01-30T07:53:05;35.00;;;19.10;;
39176;SDS011;24904;52.208;21.192;2024-01-30T07:58:10;35.70;;;18.50;;
39176;SDS011;24904;52.208;21.192;2024-01-30T08:03:15;35.10;;;18.30;;
39176;SDS011;24904;52.208;21.192;2024-01-30T08:08:20;41.70;;;20.10;;
39176;SDS011;24904;52.208;21.192;2024-01-30T08:13:25;37.30;;;17.80;;
39176;SDS011;24904;52.208;21.192;2024-01-30T08:18:30;35.50;;;18.70;;
39176;SDS011;24904;52.208;21.192;2024-01-30T08:23:35;35.70;;;18.10;;
39176;SDS011;24904;52.208;21.192;2024-01-30T08:28:41;36.80;;;18.60;;
39176;SDS011;24904;52.208;21.192;2024-01-30T08:33:46;36.60;;;19.00;;
39176;SDS011;24904;52.208;21.192;2024-01-30T08:38:51;33.10;;;18.70;;
39176;SDS011;24904;52.208;21.192;2024-01-30T08:43:56;35.40;;;18.90;;
39176;SDS011;24904;52.208;21.192;2024-01-30T08:49:01;32.70;;;17.10;;
39176;SDS011;24904;52.208;21.192;2024-01-30T08:54:06;35.20;;;19.10;;
39176;SDS011;24904;52.208;21.192;2024-01-30T08:59:11;37.50;;;18.60;;
39176;SDS011;24904;52.208;21.192;2024-01-30T09:04:17;39.00;;;19.60;;
39176;SDS011;24904;52.208;21.192;2024-01-30T09:09:22;33.80;;;17.80;;
39176;SDS011;24904;52.208;21.192;2024-01-30T09:23:24;40.00;;;18.30;;
39176;SDS011;24904;52.208;21.192;2024-01-30T09:28:28;33.70;;;19.50;;
39176;SDS011;24904;52.208;21.192;2024-01-30T09:33:31;33.90;;;18.00;;
39176;SDS011;24904;52.208;21.192;2024-01-30T09:38:34;37.70;;;17.90;;
39176;SDS011;24904;52.208;21.192;2024-01-30T09:43:38;34.50;;;17.40;;
39176;SDS011;24904;52.208;21.192;2024-01-30T09:48:41;34.30;;;17.40;;
39176;SDS011;24904;52.208;21.192;2024-01-30T09:53:45;34.60;;;17.20;;
39176;SDS011;24904;52.208;21.192;2024-01-30T09:58:48;32.80;;;17.60;;
39176;SDS011;24904;52.208;21.192;2024-01-30T10:03:51;33.10;;;17.60;;
39176;SDS011;24904;52.208;21.192;2024-01-30T10:08:55;33.10;;;17.70;;
39176;SDS011;24904;52.208;21.192;2024-01-30T10:13:59;34.80;;;17.00;;
39176;SDS011;24904;52.208;21.192;2024-01-30T10:19:02;33.50;;;17.00;;
39176;SDS011;24904;52.208;21.192;2024-01-30T10:24:06;31.20;;;16.70;;
39176;SDS011;24904;52.208;21.192;2024-01-30T10:29:09;31.60;;;16.00;;
39176;SDS011;24904;52.208;21.192;2024-01-30T10:34:12;33.00;;;15.60;;
39176;SDS011;24904;52.208;21.192;2024-01-30T10:39:16;29.60;;;15.10;;
39176;SDS011;24904;52.208;21.192;2024-01-30T10:44:21;34.10;;;16.10;;
39176;SDS011;24904;52.208;21.192;2024-01-30T10:49:24;30.20;;;15.50;;
39176;SDS011;24904;52.208;21.192;2024-01-30T10:54:28;28.80;;;15.60;;
39176;SDS011;24904;52.208;21.192;2024-01-30T10:59:33;28.00;;;14.90;;
39176;SDS011;24904;52.208;21.192;2024-01-30T11:04:37;30.40;;;15.00;;
39176;SDS011;24904;52.208;21.192;2024-01-30T11:09:48;44.00;;;14.80;;
39176;SDS011;24904;52.208;21.192;2024-01-30T11:15:01;27.30;;;13.40;;
39176;SDS011;24904;52.208;21.192;2024-01-30T11:20:09;23.40;;;13.00;;
39176;SDS011;24904;52.208;21.192;2024-01-30T11:25:13;28.20;;;13.40;;
39176;SDS011;24904;52.208;21.192;2024-01-30T11:30:24;26.00;;;13.80;;
39176;SDS011;24904;52.208;21.192;2024-01-30T11:35:28;28.50;;;12.80;;
39176;SDS011;24904;52.208;21.192;2024-01-30T11:40:34;25.20;;;13.60;;
39176;SDS011;24904;52.208;21.192;2024-01-30T11:45:38;26.60;;;13.30;;
39176;SDS011;24904;52.208;21.192;2024-01-30T11:50:42;22.20;;;12.50;;
39176;SDS011;24904;52.208;21.192;2024-01-30T11:55:50;23.90;;;14.20;;
39176;SDS011;24904;52.208;21.192;2024-01-30T12:00:53;28.80;;;13.00;;
39176;SDS011;24904;52.208;21.192;2024-01-30T12:05:57;25.30;;;13.30;;
39176;SDS011;24904;52.208;21.192;2024-01-30T12:11:00;28.40;;;13.20;;
39176;SDS011;24904;52.208;21.192;2024-01-30T12:16:06;26.10;;;13.70;;
39176;SDS011;24904;52.208;21.192;2024-01-30T12:21:09;25.40;;;13.50;;
39176;SDS011;24904;52.208;21.192;2024-01-30T12:26:13;23.30;;;12.40;;
39176;SDS011;24904;52.208;21.192;2024-01-30T12:31:16;32.80;;;14.40;;
39176;SDS011;24904;52.208;21.192;2024-01-30T12:36:19;26.00;;;13.20;;
39176;SDS011;24904;52.208;21.192;2024-01-30T12:41:22;25.10;;;13.40;;
39176;SDS011;24904;52.208;21.192;2024-01-30T12:46:29;27.40;;;13.30;;
39176;SDS011;24904;52.208;21.192;2024-01-30T12:51:34;23.10;;;11.70;;
39176;SDS011;24904;52.208;21.192;2024-01-30T12:56:37;22.10;;;12.50;;
39176;SDS011;24904;52.208;21.192;2024-01-30T13:01:40;25.30;;;13.00;;
39176;SDS011;24904;52.208;21.192;2024-01-30T13:06:43;23.70;;;12.80;;
39176;SDS011;24904;52.208;21.192;2024-01-30T13:11:46;25.30;;;12.70;;
39176;SDS011;24904;52.208;21.192;2024-01-30T13:16:50;23.70;;;12.50;;
39176;SDS011;24904;52.208;21.192;2024-01-30T13:21:54;24.70;;;13.20;;
39176;SDS011;24904;52.208;21.192;2024-01-30T13:26:57;33.60;;;13.60;;
39176;SDS011;24904;52.208;21.192;2024-01-30T13:32:00;26.60;;;12.90;;
39176;SDS011;24904;52.208;21.192;2024-01-30T13:37:03;27.00;;;13.10;;
39176;SDS011;24904;52.208;21.192;2024-01-30T13:42:07;26.00;;;13.10;;
39176;SDS011;24904;52.208;21.192;2024-01-30T13:47:10;28.80;;;13.40;;
39176;SDS011;24904;52.208;21.192;2024-01-30T13:52:13;27.40;;;13.30;;
39176;SDS011;24904;52.208;21.192;2024-01-30T13:57:16;33.20;;;13.40;;
39176;SDS011;24904;52.208;21.192;2024-01-30T14:02:19;25.80;;;12.70;;
39176;SDS011;24904;52.208;21.192;2024-01-30T14:07:22;29.20;;;12.10;;
39176;SDS011;24904;52.208;21.192;2024-01-30T14:12:25;27.30;;;12.60;;
39176;SDS011;24904;52.208;21.192;2024-01-30T14:17:28;26.60;;;12.30;;
39176;SDS011;24904;52.208;21.192;2024-01-30T14:22:31;28.70;;;12.40;;
39176;SDS011;24904;52.208;21.192;2024-01-30T14:27:35;28.30;;;13.50;;
39176;SDS011;24904;52.208;21.192;2024-01-30T14:32:38;24.90;;;12.70;;
39176;SDS011;24904;52.208;21.192;2024-01-30T14:37:43;23.80;;;12.40;;
39176;SDS011;24904;52.208;21.192;2024-01-30T14:42:46;29.20;;;12.10;;
39176;SDS011;24904;52.208;21.192;2024-01-30T14:47:50;25.70;;;12.50;;
39176;SDS011;24904;52.208;21.192;2024-01-30T14:52:53;30.80;;;12.30;;
39176;SDS011;24904;52.208;21.192;2024-01-30T14:57:57;30.70;;;12.40;;
39176;SDS011;24904;52.208;21.192;2024-01-30T15:03:00;27.50;;;12.80;;
39176;SDS011;24904;52.208;21.192;2024-01-30T15:08:04;25.80;;;11.60;;
39176;SDS011;24904;52.208;21.192;2024-01-30T15:13:08;34.10;;;14.20;;
39176;SDS011;24904;52.208;21.192;2024-01-30T15:18:12;31.70;;;13.90;;
39176;SDS011;24904;52.208;21.192;2024-01-30T15:23:15;27.30;;;13.30;;
39176;SDS011;24904;52.208;21.192;2024-01-30T15:28:18;26.80;;;13.00;;
39176;SDS011;24904;52.208;21.192;2024-01-30T15:33:24;31.20;;;13.40;;
39176;SDS011;24904;52.208;21.192;2024-01-30T15:38:28;24.10;;;12.70;;
39176;SDS011;24904;52.208;21.192;2024-01-30T15:43:31;31.40;;;13.60;;
39176;SDS011;24904;52.208;21.192;2024-01-30T15:48:34;29.00;;;12.10;;
39176;SDS011;24904;52.208;21.192;2024-01-30T15:53:37;30.40;;;12.30;;
39176;SDS011;24904;52.208;21.192;2024-01-30T15:58:40;33.30;;;13.90;;
39176;SDS011;24904;52.208;21.192;2024-01-30T16:03:43;28.60;;;13.40;;
39176;SDS011;24904;52.208;21.192;2024-01-30T16:08:46;24.30;;;11.80;;
39176;SDS011;24904;52.208;21.192;2024-01-30T16:13:49;24.70;;;12.20;;
39176;SDS011;24904;52.208;21.192;2024-01-30T16:18:53;23.20;;;11.20;;
39176;SDS011;24904;52.208;21.192;2024-01-30T16:23:57;37.70;;;13.50;;
39176;SDS011;24904;52.208;21.192;2024-01-30T16:29:00;23.50;;;12.30;;
39176;SDS011;24904;52.208;21.192;2024-01-30T16:34:03;29.50;;;14.30;;
39176;SDS011;24904;52.208;21.192;2024-01-30T16:39:06;27.10;;;13.60;;
39176;SDS011;24904;52.208;21.192;2024-01-30T16:44:09;27.60;;;13.30;;
39176;SDS011;24904;52.208;21.192;2024-01-30T16:49:12;23.80;;;12.70;;
39176;SDS011;24904;52.208;21.192;2024-01-30T16:54:15;28.80;;;13.70;;
39176;SDS011;24904;52.208;21.192;2024-01-30T16:59:18;25.10;;;13.20;;
39176;SDS011;24904;52.208;21.192;2024-01-30T17:04:22;29.60;;;16.10;;
39176;SDS011;24904;52.208;21.192;2024-01-30T17:09:25;34.00;;;14.20;;
39176;SDS011;24904;52.208;21.192;2024-01-30T17:14:28;31.90;;;15.40;;
39176;SDS011;24904;52.208;21.192;2024-01-30T17:19:31;31.00;;;15.20;;
39176;SDS011;24904;52.208;21.192;2024-01-30T17:24:34;28.40;;;16.30;;
39176;SDS011;24904;52.208;21.192;2024-01-30T17:29:38;40.50;;;19.80;;
39176;SDS011;24904;52.208;21.192;2024-01-30T17:34:40;32.30;;;17.80;;
39176;SDS011;24904;52.208;21.192;2024-01-30T17:39:44;31.50;;;16.10;;
39176;SDS011;24904;52.208;21.192;2024-01-30T17:44:47;30.20;;;15.50;;
39176;SDS011;24904;52.208;21.192;2024-01-30T17:49:50;32.20;;;16.80;;
39176;SDS011;24904;52.208;21.192;2024-01-30T17:54:53;34.10;;;17.80;;
39176;SDS011;24904;52.208;21.192;2024-01-30T17:59:56;32.60;;;18.10;;
39176;SDS011;24904;52.208;21.192;2024-01-30T18:05:00;35.40;;;17.80;;
39176;SDS011;24904;52.208;21.192;2024-01-30T18:10:06;37.40;;;17.60;;
39176;SDS011;24904;52.208;21.192;2024-01-30T18:15:10;30.70;;;16.80;;
39176;SDS011;24904;52.208;21.192;2024-01-30T18:20:13;35.60;;;17.40;;
39176;SDS011;24904;52.208;21.192;2024-01-30T18:25:16;33.70;;;18.40;;
39176;SDS011;24904;52.208;21.192;2024-01-30T18:30:20;32.90;;;17.30;;
39176;SDS011;24904;52.208;21.192;2024-01-30T18:35:23;33.30;;;18.70;;
39176;SDS011;24904;52.208;21.192;2024-01-30T18:40:26;39.80;;;19.00;;
39176;SDS011;24904;52.208;21.192;2024-01-30T18:45:29;44.20;;;19.40;;
39176;SDS011;24904;52.208;21.192;2024-01-30T18:50:32;31.60;;;17.60;;
39176;SDS011;24904;52.208;21.192;2024-01-30T18:55:36;32.40;;;16.80;;
39176;SDS011;24904;52.208;21.192;2024-01-30T19:00:39;31.00;;;13.90;;
39176;SDS011;24904;52.208;21.192;2024-01-30T19:05:42;32.30;;;16.30;;
39176;SDS011;24904;52.208;21.192;2024-01-30T19:10:46;30.50;;;15.60;;
39176;SDS011;24904;52.208;21.192;2024-01-30T19:15:50;33.90;;;17.80;;
39176;SDS011;24904;52.208;21.192;2024-01-30T19:20:53;34.70;;;17.90;;
39176;SDS011;24904;52.208;21.192;2024-01-30T19:25:56;37.30;;;19.00;;
39176;SDS011;24904;52.208;21.192;2024-01-30T19:30:59;36.70;;;19.60;;
39176;SDS011;24904;52.208;21.192;2024-01-30T19:36:04;40.20;;;19.30;;
39176;SDS011;24904;52.208;21.192;2024-01-30T19:41:11;43.10;;;21.60;;
39176;SDS011;24904;52.208;21.192;2024-01-30T19:46:14;39.60;;;21.40;;
39176;SDS011;24904;52.208;21.192;2024-01-30T19:51:17;44.60;;;21.90;;
39176;SDS011;24904;52.208;21.192;2024-01-30T19:56:20;42.90;;;20.70;;
39176;SDS011;24904;52.208;21.192;2024-01-30T20:01:24;48.00;;;23.30;;
39176;SDS011;24904;52.208;21.192;2024-01-30T20:06:27;54.00;;;24.10;;
39176;SDS011;24904;52.208;21.192;2024-01-30T20:11:31;65.90;;;26.90;;
39176;SDS011;24904;52.208;21.192;2024-01-30T20:16:37;61.00;;;30.30;;
39176;SDS011;24904;52.208;21.192;2024-01-30T20:21:41;59.50;;;29.60;;
39176;SDS011;24904;52.208;21.192;2024-01-30T20:26:46;62.70;;;30.00;;
39176;SDS011;24904;52.208;21.192;2024-01-30T20:31:49;72.20;;;34.30;;
39176;SDS011;24904;52.208;21.192;2024-01-30T20:36:52;67.40;;;34.10;;
39176;SDS011;24904;52.208;21.192;2024-01-30T20:41:55;67.70;;;34.40;;
39176;SDS011;24904;52.208;21.192;2024-01-30T20:46:58;69.50;;;36.40;;
39176;SDS011;24904;52.208;21.192;2024-01-30T20:52:01;76.10;;;37.20;;
39176;SDS011;24904;52.208;21.192;2024-01-30T20:57:04;82.60;;;39.80;;
39176;SDS011;24904;52.208;21.192;2024-01-30T21:02:07;73.30;;;37.40;;
39176;SDS011;24904;52.208;21.192;2024-01-30T21:07:10;76.20;;;36.20;;
39176;SDS011;24904;52.208;21.192;2024-01-30T21:12:13;66.60;;;33.30;;
39176;SDS011;24904;52.208;21.192;2024-01-30T21:17:16;70.10;;;33.60;;
39176;SDS011;24904;52.208;21.192;2024-01-30T21:22:20;64.80;;;32.00;;
39176;SDS011;24904;52.208;21.192;2024-01-30T21:27:23;67.50;;;34.60;;
39176;SDS011;24904;52.208;21.192;2024-01-30T21:32:27;65.50;;;32.40;;
39176;SDS011;24904;52.208;21.192;2024-01-30T21:37:30;67.70;;;33.50;;
39176;SDS011;24904;52.208;21.192;2024-01-30T21:42:34;58.10;;;29.80;;
39176;SDS011;24904;52.208;21.192;2024-01-30T21:47:37;61.70;;;31.50;;
39176;SDS011;24904;52.208;21.192;2024-01-30T21:52:40;59.70;;;30.00;;
39176;SDS011;24904;52.208;21.192;2024-01-30T21:57:43;62.80;;;29.20;;
39176;SDS011;24904;52.208;21.192;2024-01-30T22:02:46;62.10;;;29.90;;
39176;SDS011;24904;52.208;21.192;2024-01-30T22:07:49;62.20;;;29.40;;
39176;SDS011;24904;52.208;21.192;2024-01-30T22:12:52;56.60;;;28.40;;
39176;SDS011;24904;52.208;21.192;2024-01-30T22:17:55;57.20;;;29.40;;
39176;SDS011;24904;52.208;21.192;2024-01-30T22:22:59;55.60;;;28.50;;
39176;SDS011;24904;52.208;21.192;2024-01-30T22:28:02;52.50;;;26.20;;
39176;SDS011;24904;52.208;21.192;2024-01-30T22:33:05;50.60;;;25.00;;
39176;SDS011;24904;52.208;21.192;2024-01-30T22:38:10;48.70;;;26.20;;
39176;SDS011;24904;52.208;21.192;2024-01-30T22:43:13;42.50;;;23.40;;
39176;SDS011;24904;52.208;21.192;2024-01-30T22:48:16;45.20;;;23.90;;
39176;SDS011;24904;52.208;21.192;2024-01-30T22:53:19;47.50;;;23.90;;
39176;SDS011;24904;52.208;21.192;2024-01-30T22:58:22;43.70;;;23.30;;
39176;SDS011;24904;52.208;21.192;2024-01-30T23:03:25;51.10;;;22.70;;
39176;SDS011;24904;52.208;21.192;2024-01-30T23:08:28;44.90;;;23.30;;
39176;SDS011;24904;52.208;21.192;2024-01-30T23:13:31;47.60;;;22.20;;
39176;SDS011;24904;52.208;21.192;2024-01-30T23:18:34;49.40;;;23.50;;
39176;SDS011;24904;52.208;21.192;2024-01-30T23:23:37;47.10;;;23.70;;
39176;SDS011;24904;52.208;21.192;2024-01-30T23:28:40;45.10;;;23.90;;
39176;SDS011;24904;52.208;21.192;2024-01-30T23:33:43;43.70;;;23.30;;
39176;SDS011;24904;52.208;21.192;2024-01-30T23:38:48;45.40;;;22.30;;
39176;SDS011;24904;52.208;21.192;2024-01-30T23:43:51;44.50;;;21.50;;
39176;SDS011;24904;52.208;21.192;2024-01-30T23:48:54;41.10;;;21.50;;
39176;SDS011;24904;52.208;21.192;2024-01-30T23:53:57;44.30;;;21.60;;
39176;SDS011;24904;52.208;21.192;2024-01-30T23:59:01;38.80;;;20.30;;
